Taloyoak Airport
CYYH : now visible

Airfield :











YOU CAN JOIN US ON...

 
LOGIN :

Register | Disclaimer

   EN    FR    IT 

 









Legend :    VFR   Marginal VFR   IFR   Intensive IFR   Very Intensive IFR
Visi :
Ceiling :
>= 8 km
>= 3000ft
5 to 8 km
1000 to 3000 ft
1500m to 5 km
500 to 1000 ft
800 to 1500m
200 to 500 ft
< 800m
< 200 ft
Symbols :   Thunderstorms  Fog  Heavy snow  Heavy precipitations  Wind > 20 kt






- Airport Elevation : 92 ft
- IATA code : YYH


CYYH - Taloyoak

CURRENT METAR :
  • 150700Z 29009KT 8SM -SN SCT023 BKN031 OVC062 M24/M28 A2939 RMK SC3SC2SC3 SLP957

EXPIRED METARs :
  • 150600Z 30011KT 4SM -SN SCT021 BKN036 OVC060 M26/M29 A2938 RMK SC3SC3SC2 SLP954
  • 150500Z 31008KT 5SM -SN FEW022 SCT031 BKN052 OVC060 M26/M29 A2938 RMK SC2SC1SC2SC3 SLP954

TAF TAF CYYH
Valid from the 15 at 06:00 until the 15 at 18:00 UTC


150538Z 1506/1518 32008KT P6SM -SN SCT020 BKN050
TEMPO 1506/1518 5SM -SN BR BKN020
BECMG 1516/1518 18008KT RMK NXT FCST BY 151200Z



MET'MAP, your aeronautical weather chart ! - Copyright ORBIFLY December 2007 - Disclaimer

ORBIFLY MET'MAP TEAM :

Programming & Development : Alexandra Zaïnal
Concept & original design : Baudouin d'Aumeries
Assistance for programming : Marc-Olivier Méhu
Technical & hardware support : Manuel Goepfert

Contact : metmap@orbifly.com




SOURCES & CREDITS :

   NOAA       Earth
Advisory